PWSweather.com
Personal Weather Stations
Station Observations
ISTOCKPO4
Cheadle HulmeGB SK8 6NZ

Cheadle HulmeGB SK8 6NZ

Lat: 53.363783, Lon: -2.1948438

Elevation: 261

Station Type: Davis VP2 with Daytime FARS

http://www.cheadlehulmeweather.co.uk

High Low Average
Temperature 39.2°F4.0°C 28.4°F-2.0°C 33.4°F0.8°C
Dew Point 34.5°F1.4°C 24.5°F-4.2°C 28.3°F-2.1°C
Winds 16.0 mph 25.7 kmh 5.0 mph 8.0 kmh 12.0 mph ENE19.3 kmh ENE
Wind Gusts 36.0 mph57.9 kmh 12.0 mph19.3 kmh 24.0 mph38.6 kmh
Humidity 91% 68% 81%
Pressure 29.93 in1013.5 mb 29.77 in1008.1 mb -
Precipitation 0.01 in0.3 mm - -
Hour Temp Dew Point Humidity Winds Wind Gusts Pressure Precip Precip Rate Daily Precip Total
12:00 AM 39.2°F4.0°C 34.5°F1.4°C 83% 9.0 mph ENE14.5 kmh ENE 21.0 mph33.8 kmh 29.77 in1008.1 mb 0.00 in0.0 mm 0.00 in0.0 mm 0.00 in0.0 mm
12:15 AM 39.0°F3.9°C 34.0°F1.1°C 82% 11.0 mph NE17.7 kmh NE 20.0 mph32.2 kmh 29.77 in1008.1 mb 0.00 in0.0 mm 0.00 in0.0 mm 0.00 in0.0 mm
12:30 AM 38.8°F3.8°C 33.8°F1.0°C 82% 9.0 mph NE14.5 kmh NE 17.0 mph27.4 kmh 29.78 in1008.5 mb 0.00 in0.0 mm 0.00 in0.0 mm 0.00 in0.0 mm
12:45 AM 38.7°F3.7°C 33.6°F0.9°C 82% 9.0 mph NE14.5 kmh NE 19.0 mph30.6 kmh 29.79 in1008.8 mb 0.00 in0.0 mm 0.00 in0.0 mm 0.00 in0.0 mm
01:00 AM 38.5°F3.6°C 33.2°F0.7°C 81% 11.0 mph ENE17.7 kmh ENE 22.0 mph35.4 kmh 29.79 in1008.8 mb 0.00 in0.0 mm 0.00 in0.0 mm 0.00 in0.0 mm
01:15 AM 38.1°F3.4°C 32.8°F0.4°C 81% 10.0 mph ENE16.1 kmh ENE 21.0 mph33.8 kmh 29.79 in1008.8 mb 0.00 in0.0 mm 0.00 in0.0 mm 0.00 in0.0 mm
01:30 AM 38.1°F3.4°C 32.5°F0.3°C 80% 11.0 mph ENE17.7 kmh ENE 23.0 mph37.0 kmh 29.81 in1009.5 mb 0.00 in0.0 mm 0.00 in0.0 mm 0.00 in0.0 mm
01:45 AM 37.9°F3.3°C 32.3°F0.2°C 80% 12.0 mph ENE19.3 kmh ENE 23.0 mph37.0 kmh 29.81 in1009.5 mb 0.00 in0.0 mm 0.00 in0.0 mm 0.00 in0.0 mm
02:00 AM 37.6°F3.1°C 32.3°F0.2°C 81% 11.0 mph E17.7 kmh E 23.0 mph37.0 kmh 29.82 in1009.8 mb 0.00 in0.0 mm 0.00 in0.0 mm 0.00 in0.0 mm
02:15 AM 37.6°F3.1°C 32.3°F0.2°C 81% 12.0 mph ENE19.3 kmh ENE 24.0 mph38.6 kmh 29.82 in1009.8 mb 0.00 in0.0 mm 0.00 in0.0 mm 0.00 in0.0 mm
02:30 AM 37.6°F3.1°C 32.0°F0.0°C 80% 12.0 mph ENE19.3 kmh ENE 25.0 mph40.2 kmh 29.82 in1009.8 mb 0.00 in0.0 mm 0.00 in0.0 mm 0.00 in0.0 mm
02:45 AM 37.6°F3.1°C 32.0°F0.0°C 80% 13.0 mph ENE20.9 kmh ENE 26.0 mph41.8 kmh 29.82 in1009.8 mb 0.00 in0.0 mm 0.00 in0.0 mm 0.00 in0.0 mm
03:00 AM 37.0°F2.8°C 31.8°F-0.1°C 81% 12.0 mph E19.3 kmh E 25.0 mph40.2 kmh 29.83 in1010.2 mb 0.00 in0.0 mm 0.00 in0.0 mm 0.00 in0.0 mm
03:15 AM 36.7°F2.6°C 31.7°F-0.2°C 82% 12.0 mph E19.3 kmh E 27.0 mph43.5 kmh 29.84 in1010.5 mb 0.00 in0.0 mm 0.00 in0.0 mm 0.00 in0.0 mm
03:30 AM 36.7°F2.6°C 31.4°F-0.3°C 81% 12.0 mph E19.3 kmh E 22.0 mph35.4 kmh 29.84 in1010.5 mb 0.00 in0.0 mm 0.00 in0.0 mm 0.00 in0.0 mm
03:45 AM 36.5°F2.5°C 31.2°F-0.4°C 81% 10.0 mph E16.1 kmh E 23.0 mph37.0 kmh 29.84 in1010.5 mb 0.00 in0.0 mm 0.00 in0.0 mm 0.00 in0.0 mm
04:00 AM 36.3°F2.4°C 31.4°F-0.3°C 82% 10.0 mph E16.1 kmh E 22.0 mph35.4 kmh 29.84 in1010.5 mb 0.00 in0.0 mm 0.00 in0.0 mm 0.00 in0.0 mm
04:15 AM 36.0°F2.2°C 31.3°F-0.4°C 83% 11.0 mph E17.7 kmh E 22.0 mph35.4 kmh 29.84 in1010.5 mb 0.00 in0.0 mm 0.00 in0.0 mm 0.00 in0.0 mm
04:30 AM 35.8°F2.1°C 31.4°F-0.3°C 84% 10.0 mph ENE16.1 kmh ENE 23.0 mph37.0 kmh 29.85 in1010.8 mb 0.00 in0.0 mm 0.00 in0.0 mm 0.00 in0.0 mm
04:45 AM 35.8°F2.1°C 31.4°F-0.3°C 84% 10.0 mph E16.1 kmh E 20.0 mph32.2 kmh 29.84 in1010.5 mb 0.00 in0.0 mm 0.00 in0.0 mm 0.00 in0.0 mm
05:00 AM 35.8°F2.1°C 30.8°F-0.7°C 82% 14.0 mph E22.5 kmh E 27.0 mph43.5 kmh 29.84 in1010.5 mb 0.00 in0.0 mm 0.00 in0.0 mm 0.00 in0.0 mm
05:15 AM 35.8°F2.1°C 30.5°F-0.8°C 81% 15.0 mph ENE24.1 kmh ENE 30.0 mph48.3 kmh 29.86 in1011.2 mb 0.00 in0.0 mm 0.00 in0.0 mm 0.00 in0.0 mm
05:30 AM 35.4°F1.9°C 30.2°F-1.0°C 81% 14.0 mph ENE22.5 kmh ENE 27.0 mph43.5 kmh 29.86 in1011.2 mb 0.00 in0.0 mm 0.00 in0.0 mm 0.00 in0.0 mm
05:45 AM 35.4°F1.9°C 29.9°F-1.2°C 80% 13.0 mph ENE20.9 kmh ENE 25.0 mph40.2 kmh 29.87 in1011.5 mb 0.00 in0.0 mm 0.00 in0.0 mm 0.00 in0.0 mm
06:00 AM 35.2°F1.8°C 29.7°F-1.3°C 80% 13.0 mph ENE20.9 kmh ENE 32.0 mph51.5 kmh 29.87 in1011.5 mb 0.00 in0.0 mm 0.00 in0.0 mm 0.00 in0.0 mm
06:15 AM 35.2°F1.8°C 29.4°F-1.4°C 79% 15.0 mph ENE24.1 kmh ENE 30.0 mph48.3 kmh 29.87 in1011.5 mb 0.00 in0.0 mm 0.00 in0.0 mm 0.00 in0.0 mm
06:30 AM 34.9°F1.6°C 29.3°F-1.5°C 80% 10.0 mph ENE16.1 kmh ENE 21.0 mph33.8 kmh 29.88 in1011.9 mb 0.00 in0.0 mm 0.00 in0.0 mm 0.00 in0.0 mm
06:45 AM 34.7°F1.5°C 28.5°F-1.9°C 78% 12.0 mph ENE19.3 kmh ENE 25.0 mph40.2 kmh 29.88 in1011.9 mb 0.00 in0.0 mm 0.00 in0.0 mm 0.00 in0.0 mm
07:00 AM 34.5°F1.4°C 27.4°F-2.6°C 75% 14.0 mph ENE22.5 kmh ENE 24.0 mph38.6 kmh 29.89 in1012.2 mb 0.00 in0.0 mm 0.00 in0.0 mm 0.00 in0.0 mm
07:15 AM 34.3°F1.3°C 27.6°F-2.4°C 76% 10.0 mph ENE16.1 kmh ENE 22.0 mph35.4 kmh 29.89 in1012.2 mb 0.00 in0.0 mm 0.00 in0.0 mm 0.00 in0.0 mm
07:30 AM 34.3°F1.3°C 26.9°F-2.8°C 74% 10.0 mph E16.1 kmh E 23.0 mph37.0 kmh 29.90 in1012.5 mb 0.00 in0.0 mm 0.00 in0.0 mm 0.00 in0.0 mm
07:45 AM 33.8°F1.0°C 26.1°F-3.3°C 73% 16.0 mph ENE25.7 kmh ENE 35.0 mph56.3 kmh 29.90 in1012.5 mb 0.00 in0.0 mm 0.00 in0.0 mm 0.00 in0.0 mm
08:00 AM 33.4°F0.8°C 25.4°F-3.7°C 72% 12.0 mph E19.3 kmh E 21.0 mph33.8 kmh 29.91 in1012.9 mb 0.00 in0.0 mm 0.00 in0.0 mm 0.00 in0.0 mm
08:15 AM 33.6°F0.9°C 24.5°F-4.2°C 69% 13.0 mph ENE20.9 kmh ENE 23.0 mph37.0 kmh 29.92 in1013.2 mb 0.00 in0.0 mm 0.00 in0.0 mm 0.00 in0.0 mm
08:30 AM 33.8°F1.0°C 25.4°F-3.7°C 71% 10.0 mph E16.1 kmh E 19.0 mph30.6 kmh 29.92 in1013.2 mb 0.00 in0.0 mm 0.00 in0.0 mm 0.00 in0.0 mm
08:45 AM 34.2°F1.2°C 26.4°F-3.1°C 73% 8.0 mph NE12.9 kmh NE 18.0 mph29.0 kmh 29.92 in1013.2 mb 0.00 in0.0 mm 0.00 in0.0 mm 0.00 in0.0 mm
09:00 AM 34.3°F1.3°C 26.9°F-2.8°C 74% 9.0 mph ENE14.5 kmh ENE 18.0 mph29.0 kmh 29.92 in1013.2 mb 0.00 in0.0 mm 0.00 in0.0 mm 0.00 in0.0 mm
09:15 AM 34.7°F1.5°C 26.3°F-3.2°C 71% 10.0 mph ENE16.1 kmh ENE 19.0 mph30.6 kmh 29.92 in1013.2 mb 0.00 in0.0 mm 0.00 in0.0 mm 0.00 in0.0 mm
09:30 AM 35.1°F1.7°C 25.6°F-3.6°C 68% 12.0 mph ENE19.3 kmh ENE 21.0 mph33.8 kmh 29.92 in1013.2 mb 0.00 in0.0 mm 0.00 in0.0 mm 0.00 in0.0 mm
09:45 AM 34.9°F1.6°C 27.1°F-2.7°C 73% 10.0 mph NE16.1 kmh NE 20.0 mph32.2 kmh 29.93 in1013.5 mb 0.00 in0.0 mm 0.00 in0.0 mm 0.00 in0.0 mm
10:00 AM 34.3°F1.3°C 27.2°F-2.7°C 75% 8.0 mph ENE12.9 kmh ENE 14.0 mph22.5 kmh 29.93 in1013.5 mb 0.00 in0.0 mm 0.00 in0.0 mm 0.00 in0.0 mm
10:15 AM 32.9°F0.5°C 28.3°F-2.1°C 83% 12.0 mph NE19.3 kmh NE 24.0 mph38.6 kmh 29.93 in1013.5 mb 0.00 in0.0 mm 0.00 in0.0 mm 0.00 in0.0 mm
10:30 AM 32.9°F0.5°C 29.2°F-1.6°C 86% 9.0 mph ENE14.5 kmh ENE 20.0 mph32.2 kmh 29.92 in1013.2 mb 0.00 in0.0 mm 0.00 in0.0 mm 0.00 in0.0 mm
10:45 AM 35.1°F1.7°C 27.9°F-2.3°C 75% 15.0 mph ENE24.1 kmh ENE 30.0 mph48.3 kmh 29.92 in1013.2 mb 0.00 in0.0 mm 0.00 in0.0 mm 0.00 in0.0 mm
11:00 AM 35.6°F2.0°C 28.5°F-1.9°C 75% 13.0 mph NE20.9 kmh NE 27.0 mph43.5 kmh 29.92 in1013.2 mb 0.00 in0.0 mm 0.00 in0.0 mm 0.00 in0.0 mm
11:15 AM 34.2°F1.2°C 27.1°F-2.7°C 75% 14.0 mph ENE22.5 kmh ENE 30.0 mph48.3 kmh 29.92 in1013.2 mb 0.00 in0.0 mm 0.00 in0.0 mm 0.00 in0.0 mm
11:30 AM 34.3°F1.3°C 28.8°F-1.8°C 80% 13.0 mph ENE20.9 kmh ENE 25.0 mph40.2 kmh 29.92 in1013.2 mb 0.00 in0.0 mm 0.00 in0.0 mm 0.00 in0.0 mm
11:45 AM 34.5°F1.4°C 27.1°F-2.7°C 74% 16.0 mph ENE25.7 kmh ENE 36.0 mph57.9 kmh 29.92 in1013.2 mb 0.00 in0.0 mm 0.00 in0.0 mm 0.00 in0.0 mm
12:00 PM 30.7°F-0.7°C 27.6°F-2.4°C 88% 14.0 mph ENE22.5 kmh ENE 29.0 mph46.7 kmh 29.93 in1013.5 mb 0.00 in0.0 mm 0.00 in0.0 mm 0.00 in0.0 mm
12:15 PM 33.3°F0.7°C 28.9°F-1.7°C 84% 14.0 mph ENE22.5 kmh ENE 29.0 mph46.7 kmh 29.92 in1013.2 mb 0.00 in0.0 mm 0.00 in0.0 mm 0.00 in0.0 mm
12:30 PM 35.4°F1.9°C 29.9°F-1.2°C 80% 11.0 mph ENE17.7 kmh ENE 28.0 mph45.1 kmh 29.92 in1013.2 mb 0.00 in0.0 mm 0.00 in0.0 mm 0.00 in0.0 mm
12:45 PM 33.3°F0.7°C 28.9°F-1.7°C 84% 15.0 mph ENE24.1 kmh ENE 29.0 mph46.7 kmh 29.92 in1013.2 mb 0.00 in0.0 mm 0.00 in0.0 mm 0.00 in0.0 mm
01:00 PM 34.5°F1.4°C 28.7°F-1.8°C 79% 12.0 mph ENE19.3 kmh ENE 30.0 mph48.3 kmh 29.91 in1012.9 mb 0.00 in0.0 mm 0.00 in0.0 mm 0.00 in0.0 mm
01:15 PM 36.0°F2.2°C 27.1°F-2.7°C 70% 16.0 mph NE25.7 kmh NE 33.0 mph53.1 kmh 29.90 in1012.5 mb 0.01 in0.3 mm 0.04 in1.0 mm 0.01 in0.3 mm
01:30 PM 34.0°F1.1°C 28.5°F-1.9°C 80% 14.0 mph NE22.5 kmh NE 29.0 mph46.7 kmh 29.91 in1012.9 mb 0.01 in0.3 mm 0.00 in0.0 mm 0.01 in0.3 mm
01:45 PM 35.8°F2.1°C 28.0°F-2.2°C 73% 14.0 mph NE22.5 kmh NE 33.0 mph53.1 kmh 29.90 in1012.5 mb 0.01 in0.3 mm 0.00 in0.0 mm 0.01 in0.3 mm
02:00 PM 34.5°F1.4°C 25.7°F-3.5°C 70% 12.0 mph ENE19.3 kmh ENE 26.0 mph41.8 kmh 29.92 in1013.2 mb 0.01 in0.3 mm 0.00 in0.0 mm 0.01 in0.3 mm
02:15 PM 32.4°F0.2°C 27.8°F-2.3°C 83% 13.0 mph ENE20.9 kmh ENE 25.0 mph40.2 kmh 29.91 in1012.9 mb 0.00 in0.0 mm 0.00 in0.0 mm 0.01 in0.3 mm
02:30 PM 34.3°F1.3°C 27.2°F-2.7°C 75% 14.0 mph ENE22.5 kmh ENE 29.0 mph46.7 kmh 29.91 in1012.9 mb 0.00 in0.0 mm 0.00 in0.0 mm 0.01 in0.3 mm
02:45 PM 34.5°F1.4°C 25.0°F-3.9°C 68% 13.0 mph ENE20.9 kmh ENE 29.0 mph46.7 kmh 29.91 in1012.9 mb 0.00 in0.0 mm 0.00 in0.0 mm 0.01 in0.3 mm
03:00 PM 32.5°F0.3°C 28.8°F-1.8°C 86% 10.0 mph ENE16.1 kmh ENE 22.0 mph35.4 kmh 29.91 in1012.9 mb 0.00 in0.0 mm 0.00 in0.0 mm 0.01 in0.3 mm
03:15 PM 31.3°F-0.4°C 27.9°F-2.3°C 87% 12.0 mph E19.3 kmh E 29.0 mph46.7 kmh 29.90 in1012.5 mb 0.00 in0.0 mm 0.00 in0.0 mm 0.01 in0.3 mm
03:30 PM 32.9°F0.5°C 28.9°F-1.7°C 85% 9.0 mph NE14.5 kmh NE 20.0 mph32.2 kmh 29.91 in1012.9 mb 0.00 in0.0 mm 0.00 in0.0 mm 0.01 in0.3 mm
03:45 PM 31.1°F-0.5°C 28.0°F-2.2°C 88% 11.0 mph NE17.7 kmh NE 21.0 mph33.8 kmh 29.91 in1012.9 mb 0.00 in0.0 mm 0.00 in0.0 mm 0.01 in0.3 mm
04:00 PM 31.8°F-0.1°C 27.2°F-2.7°C 83% 11.0 mph ENE17.7 kmh ENE 33.0 mph53.1 kmh 29.90 in1012.5 mb 0.00 in0.0 mm 0.00 in0.0 mm 0.01 in0.3 mm
04:15 PM 31.5°F-0.3°C 26.3°F-3.2°C 81% 12.0 mph NE19.3 kmh NE 30.0 mph48.3 kmh 29.89 in1012.2 mb 0.00 in0.0 mm 0.00 in0.0 mm 0.01 in0.3 mm
04:30 PM 32.2°F0.1°C 25.8°F-3.4°C 77% 14.0 mph NE22.5 kmh NE 28.0 mph45.1 kmh 29.89 in1012.2 mb 0.00 in0.0 mm 0.00 in0.0 mm 0.01 in0.3 mm
04:45 PM 32.5°F0.3°C 26.1°F-3.3°C 77% 12.0 mph NE19.3 kmh NE 27.0 mph43.5 kmh 29.89 in1012.2 mb 0.00 in0.0 mm 0.00 in0.0 mm 0.01 in0.3 mm
05:00 PM 31.1°F-0.5°C 26.8°F-2.9°C 84% 11.0 mph NE17.7 kmh NE 22.0 mph35.4 kmh 29.90 in1012.5 mb 0.00 in0.0 mm 0.00 in0.0 mm 0.01 in0.3 mm
05:15 PM 30.9°F-0.6°C 26.7°F-2.9°C 84% 13.0 mph NE20.9 kmh NE 28.0 mph45.1 kmh 29.91 in1012.9 mb 0.00 in0.0 mm 0.00 in0.0 mm 0.01 in0.3 mm
05:30 PM 30.0°F-1.1°C 26.9°F-2.8°C 88% 11.0 mph NE17.7 kmh NE 19.0 mph30.6 kmh 29.91 in1012.9 mb 0.00 in0.0 mm 0.00 in0.0 mm 0.01 in0.3 mm
05:45 PM 30.0°F-1.1°C 26.6°F-3.0°C 87% 14.0 mph NE22.5 kmh NE 25.0 mph40.2 kmh 29.91 in1012.9 mb 0.00 in0.0 mm 0.00 in0.0 mm 0.01 in0.3 mm
06:00 PM 30.2°F-1.0°C 27.1°F-2.7°C 88% 10.0 mph NE16.1 kmh NE 24.0 mph38.6 kmh 29.91 in1012.9 mb 0.00 in0.0 mm 0.00 in0.0 mm 0.01 in0.3 mm
06:15 PM 30.0°F-1.1°C 26.6°F-3.0°C 87% 11.0 mph NE17.7 kmh NE 25.0 mph40.2 kmh 29.92 in1013.2 mb 0.00 in0.0 mm 0.00 in0.0 mm 0.01 in0.3 mm
06:30 PM 29.5°F-1.4°C 26.9°F-2.8°C 90% 9.0 mph NE14.5 kmh NE 17.0 mph27.4 kmh 29.91 in1012.9 mb 0.00 in0.0 mm 0.00 in0.0 mm 0.01 in0.3 mm
06:45 PM 29.5°F-1.4°C 27.2°F-2.7°C 91% 10.0 mph NE16.1 kmh NE 27.0 mph43.5 kmh 29.91 in1012.9 mb 0.00 in0.0 mm 0.00 in0.0 mm 0.01 in0.3 mm
07:00 PM 29.7°F-1.3°C 26.8°F-2.9°C 89% 13.0 mph NE20.9 kmh NE 25.0 mph40.2 kmh 29.91 in1012.9 mb 0.00 in0.0 mm 0.00 in0.0 mm 0.01 in0.3 mm
07:15 PM 29.3°F-1.5°C 26.7°F-2.9°C 90% 10.0 mph NE16.1 kmh NE 17.0 mph27.4 kmh 29.91 in1012.9 mb 0.00 in0.0 mm 0.00 in0.0 mm 0.01 in0.3 mm
07:30 PM 29.3°F-1.5°C 27.0°F-2.8°C 91% 5.0 mph NE8.0 kmh NE 12.0 mph19.3 kmh 29.91 in1012.9 mb 0.00 in0.0 mm 0.00 in0.0 mm 0.01 in0.3 mm
07:45 PM 29.1°F-1.6°C 26.8°F-2.9°C 91% 9.0 mph NE14.5 kmh NE 20.0 mph32.2 kmh 29.91 in1012.9 mb 0.00 in0.0 mm 0.00 in0.0 mm 0.01 in0.3 mm
08:00 PM 28.9°F-1.7°C 26.6°F-3.0°C 91% 8.0 mph NE12.9 kmh NE 24.0 mph38.6 kmh 29.91 in1012.9 mb 0.00 in0.0 mm 0.00 in0.0 mm 0.01 in0.3 mm
08:15 PM 29.3°F-1.5°C 26.5°F-3.1°C 89% 12.0 mph NE19.3 kmh NE 26.0 mph41.8 kmh 29.90 in1012.5 mb 0.00 in0.0 mm 0.00 in0.0 mm 0.01 in0.3 mm
08:30 PM 29.5°F-1.4°C 26.4°F-3.1°C 88% 11.0 mph NE17.7 kmh NE 20.0 mph32.2 kmh 29.90 in1012.5 mb 0.00 in0.0 mm 0.00 in0.0 mm 0.01 in0.3 mm
08:45 PM 29.3°F-1.5°C 26.2°F-3.2°C 88% 12.0 mph NE19.3 kmh NE 22.0 mph35.4 kmh 29.90 in1012.5 mb 0.00 in0.0 mm 0.00 in0.0 mm 0.01 in0.3 mm
09:00 PM 29.5°F-1.4°C 26.4°F-3.1°C 88% 11.0 mph NE17.7 kmh NE 21.0 mph33.8 kmh 29.91 in1012.9 mb 0.00 in0.0 mm 0.00 in0.0 mm 0.01 in0.3 mm
09:15 PM 28.8°F-1.8°C 26.2°F-3.2°C 90% 10.0 mph NE16.1 kmh NE 17.0 mph27.4 kmh 29.91 in1012.9 mb 0.00 in0.0 mm 0.00 in0.0 mm 0.01 in0.3 mm
09:30 PM 28.4°F-2.0°C 26.1°F-3.3°C 91% 10.0 mph NE16.1 kmh NE 22.0 mph35.4 kmh 29.91 in1012.9 mb 0.00 in0.0 mm 0.00 in0.0 mm 0.01 in0.3 mm
09:45 PM 28.8°F-1.8°C 26.2°F-3.2°C 90% 13.0 mph NE20.9 kmh NE 23.0 mph37.0 kmh 29.90 in1012.5 mb 0.00 in0.0 mm 0.00 in0.0 mm 0.01 in0.3 mm
10:00 PM 28.9°F-1.7°C 25.6°F-3.6°C 87% 16.0 mph NE25.7 kmh NE 31.0 mph49.9 kmh 29.89 in1012.2 mb 0.00 in0.0 mm 0.00 in0.0 mm 0.01 in0.3 mm
10:15 PM 28.9°F-1.7°C 25.3°F-3.7°C 86% 14.0 mph NE22.5 kmh NE 25.0 mph40.2 kmh 29.89 in1012.2 mb 0.00 in0.0 mm 0.00 in0.0 mm 0.01 in0.3 mm
10:30 PM 29.3°F-1.5°C 25.4°F-3.7°C 85% 15.0 mph NE24.1 kmh NE 26.0 mph41.8 kmh 29.89 in1012.2 mb 0.00 in0.0 mm 0.00 in0.0 mm 0.01 in0.3 mm
10:45 PM 29.5°F-1.4°C 25.2°F-3.8°C 84% 15.0 mph NE24.1 kmh NE 26.0 mph41.8 kmh 29.88 in1011.9 mb 0.00 in0.0 mm 0.00 in0.0 mm 0.01 in0.3 mm
11:00 PM 29.1°F-1.6°C 25.2°F-3.8°C 85% 13.0 mph NE20.9 kmh NE 21.0 mph33.8 kmh 29.88 in1011.9 mb 0.00 in0.0 mm 0.00 in0.0 mm 0.01 in0.3 mm
11:15 PM 29.3°F-1.5°C 25.4°F-3.7°C 85% 14.0 mph NE22.5 kmh NE 33.0 mph53.1 kmh 29.88 in1011.9 mb 0.00 in0.0 mm 0.00 in0.0 mm 0.01 in0.3 mm
11:30 PM 29.3°F-1.5°C 25.4°F-3.7°C 85% 14.0 mph NE22.5 kmh NE 23.0 mph37.0 kmh 29.88 in1011.9 mb 0.00 in0.0 mm 0.00 in0.0 mm 0.01 in0.3 mm
11:45 PM 29.1°F-1.6°C 25.7°F-3.5°C 87% 13.0 mph NE20.9 kmh NE 22.0 mph35.4 kmh 29.88 in1011.9 mb 0.00 in0.0 mm 0.00 in0.0 mm 0.01 in0.3 mm